Time;durP1;ratioP1;P1;durP2;ratioP2;P2;SDS_P1;SDS_P2;PMS_P1;PMS_P2;Temp;Humidity;BMP_temperature;BMP_pressure;BME280_temperature;BME280_humidity;BME280_pressure;Samples;Min_cycle;Max_cycle;Signal;HPM_P1;HPM_P2
2021/07/18 00:01:12;;;;;;;58.37;2.83;;;17.70;58.40;;;;;;5053474;28;20491;-71
2021/07/18 00:03:39;;;;;;;58.83;3.60;;;17.70;58.20;;;;;;5053075;28;20552;-70
2021/07/18 00:06:06;;;;;;;58.90;3.37;;;17.70;58.10;;;;;;5053287;28;20490;-71
2021/07/18 00:08:34;;;;;;;58.20;3.03;;;17.60;60.50;;;;;;5053345;28;20455;-71
2021/07/18 00:11:01;;;;;;;58.43;3.00;;;17.60;61.40;;;;;;5057670;28;20568;-71
2021/07/18 00:13:28;;;;;;;58.27;2.70;;;17.50;62.00;;;;;;5072651;28;20465;-71
2021/07/18 00:15:55;;;;;;;58.40;2.90;;;17.50;61.60;;;;;;5073111;28;20577;-70
2021/07/18 00:18:22;;;;;;;58.60;3.00;;;17.50;61.80;;;;;;5072987;28;20537;-71
2021/07/18 00:20:50;;;;;;;58.37;3.00;;;17.50;61.40;;;;;;5072901;28;20959;-70
2021/07/18 00:23:17;;;;;;;57.97;2.70;;;17.40;61.20;;;;;;5072673;28;20461;-70
2021/07/18 00:25:45;;;;;;;59.07;3.60;;;17.40;61.30;;;;;;5072624;28;20546;-71
2021/07/18 00:28:12;;;;;;;58.60;2.80;;;17.40;61.50;;;;;;5073007;28;20532;-71
2021/07/18 00:30:39;;;;;;;58.40;3.00;;;17.40;62.40;;;;;;5073098;28;20451;-70
2021/07/18 00:33:07;;;;;;;58.70;3.33;;;17.30;62.60;;;;;;5072383;28;20447;-71
2021/07/18 00:35:34;;;;;;;58.40;3.10;;;17.30;63.30;;;;;;5072704;28;20485;-70
2021/07/18 00:38:01;;;;;;;58.80;3.23;;;17.30;63.70;;;;;;5072650;28;20530;-70
2021/07/18 00:40:28;;;;;;;59.67;4.40;;;17.20;64.10;;;;;;5072600;28;20549;-71
2021/07/18 00:42:57;;;;;;;58.73;3.43;;;17.20;64.60;;;;;;5071018;28;20541;-70
2021/07/18 00:45:23;;;;;;;58.77;3.40;;;17.10;64.40;;;;;;5072415;28;20470;-71
2021/07/18 00:47:51;;;;;;;58.33;2.70;;;17.10;63.80;;;;;;5072595;28;20475;-70
2021/07/18 00:50:18;;;;;;;58.20;3.20;;;17.10;64.70;;;;;;5072386;28;20537;-71
2021/07/18 00:52:45;;;;;;;59.67;4.40;;;17.00;67.60;;;;;;5072020;28;20534;-70
2021/07/18 00:55:14;;;;;;;58.07;2.73;;;17.00;67.40;;;;;;5072228;28;20855;-71
2021/07/18 00:57:45;;;;;;;58.20;2.90;;;17.00;69.00;;;;;;5072500;28;20533;-71
2021/07/18 01:00:15;;;;;;;58.40;3.00;;;16.90;69.00;;;;;;5072259;28;20450;-71
2021/07/18 01:02:43;;;;;;;58.47;3.07;;;16.90;69.30;;;;;;5072047;28;20498;-71
2021/07/18 01:05:14;;;;;;;59.00;3.47;;;16.80;69.50;;;;;;5072162;28;20986;-70
2021/07/18 01:07:40;;;;;;;58.80;3.53;;;16.80;70.90;;;;;;5071912;28;20446;-70
2021/07/18 01:10:09;;;;;;;59.63;3.17;;;16.80;71.70;;;;;;5072506;28;20450;-71
2021/07/18 01:12:36;;;;;;;59.47;4.70;;;16.80;71.90;;;;;;5071880;28;20461;-71
2021/07/18 01:15:04;;;;;;;58.93;4.03;;;16.70;71.50;;;;;;5070576;28;20470;-71
2021/07/18 01:17:33;;;;;;;58.37;2.87;;;16.70;72.20;;;;;;5071873;28;20577;-71
2021/07/18 01:20:01;;;;;;;59.07;3.83;;;16.70;73.00;;;;;;5071810;28;20454;-71
2021/07/18 01:22:30;;;;;;;58.33;3.20;;;16.70;72.30;;;;;;5071978;28;20497;-71
2021/07/18 01:24:57;;;;;;;58.60;3.10;;;16.60;72.10;;;;;;5071979;28;20470;-71
2021/07/18 01:27:24;;;;;;;58.37;2.80;;;16.50;71.10;;;;;;5072014;28;20822;-71
2021/07/18 01:29:52;;;;;;;58.60;3.10;;;16.50;72.50;;;;;;5071881;28;20543;-71
2021/07/18 01:32:19;;;;;;;59.10;3.70;;;16.50;73.50;;;;;;5071540;28;20541;-71
2021/07/18 01:34:46;;;;;;;58.60;3.13;;;16.40;74.60;;;;;;5071612;28;20548;-71
2021/07/18 01:37:13;;;;;;;58.40;3.30;;;16.40;74.90;;;;;;5071906;28;20481;-71
2021/07/18 01:39:41;;;;;;;58.60;3.27;;;16.40;76.10;;;;;;5071944;28;20536;-71
2021/07/18 01:42:08;;;;;;;58.40;2.90;;;16.30;76.60;;;;;;5071660;28;20441;-71
2021/07/18 01:44:35;;;;;;;59.40;4.40;;;16.30;76.10;;;;;;5071468;28;20471;-71
2021/07/18 01:47:02;;;;;;;58.30;3.00;;;16.20;75.50;;;;;;5061527;28;20563;-71
2021/07/18 01:49:29;;;;;;;58.13;2.63;;;16.20;75.30;;;;;;5063659;28;20821;-71
2021/07/18 01:51:56;;;;;;;58.30;2.80;;;16.10;75.90;;;;;;5071261;28;20450;-71
2021/07/18 01:54:23;;;;;;;58.23;2.67;;;16.10;76.90;;;;;;5071656;28;20474;-71
2021/07/18 01:56:51;;;;;;;59.17;3.20;;;16.00;75.90;;;;;;5071541;28;21025;-71
2021/07/18 01:59:18;;;;;;;58.50;2.83;;;16.00;76.10;;;;;;5071640;28;20475;-71
2021/07/18 02:01:45;;;;;;;58.40;3.00;;;15.90;76.70;;;;;;5071129;28;20809;-71
2021/07/18 02:04:13;;;;;;;58.50;3.13;;;15.90;79.90;;;;;;5071436;28;20475;-71
2021/07/18 02:06:41;;;;;;;58.80;3.73;;;15.90;82.00;;;;;;5071617;28;20445;-71
2021/07/18 02:09:08;;;;;;;58.70;3.40;;;15.90;83.20;;;;;;5071613;28;20450;-71
2021/07/18 02:11:35;;;;;;;58.67;3.63;;;15.90;82.50;;;;;;5071198;28;20476;-71
2021/07/18 02:14:05;;;;;;;59.20;3.77;;;15.90;82.50;;;;;;5071312;28;20555;-71
2021/07/18 02:16:31;;;;;;;58.73;3.27;;;15.90;82.30;;;;;;5071397;28;20596;-71
2021/07/18 02:19:06;;;;;;;58.17;2.73;;;15.80;82.20;;;;;;5071587;28;20446;-71
2021/07/18 02:21:34;;;;;;;59.00;3.60;;;15.80;82.40;;;;;;5074946;28;20450;-71
2021/07/18 02:24:00;;;;;;;59.30;3.70;;;15.80;82.30;;;;;;5075247;28;20477;-71
2021/07/18 02:26:29;;;;;;;58.70;3.10;;;15.70;82.80;;;;;;5075162;28;20996;-71
2021/07/18 02:28:57;;;;;;;58.73;3.27;;;15.70;83.90;;;;;;5075096;28;20445;-71
2021/07/18 02:31:25;;;;;;;58.77;3.20;;;15.70;85.60;;;;;;5074844;28;20532;-71
2021/07/18 02:33:52;;;;;;;59.00;4.17;;;15.70;85.90;;;;;;5074951;28;20448;-71
2021/07/18 02:36:19;;;;;;;58.80;3.00;;;15.70;86.30;;;;;;5074866;28;20563;-71
2021/07/18 02:38:46;;;;;;;58.60;3.17;;;15.70;87.20;;;;;;5074879;28;20457;-71
2021/07/18 02:41:14;;;;;;;58.27;3.03;;;15.70;86.60;;;;;;5074595;28;20559;-72
2021/07/18 02:43:41;;;;;;;58.07;3.17;;;15.70;85.10;;;;;;5074789;28;20450;-71
2021/07/18 02:46:08;;;;;;;58.70;3.17;;;15.60;84.00;;;;;;5074743;28;20531;-71
2021/07/18 02:48:38;;;;;;;60.07;4.27;;;15.60;84.30;;;;;;5074597;28;20828;-71
2021/07/18 02:51:05;;;;;;;58.50;2.83;;;15.50;83.90;;;;;;5064244;28;20946;-71
2021/07/18 02:53:32;;;;;;;58.67;3.53;;;15.50;83.00;;;;;;5066759;28;20533;-71
2021/07/18 02:55:59;;;;;;;58.50;2.90;;;15.40;83.00;;;;;;5074372;28;20556;-71
2021/07/18 02:58:25;;;;;;;58.87;3.80;;;15.40;83.30;;;;;;5074555;28;20539;-71
2021/07/18 03:00:52;;;;;;;58.33;2.57;;;15.40;83.80;;;;;;5074817;28;20486;-71
2021/07/18 03:03:19;;;;;;;59.10;3.83;;;15.30;83.20;;;;;;5074411;28;20564;-71
2021/07/18 03:05:48;;;;;;;60.07;3.93;;;15.30;85.20;;;;;;5074501;28;20909;-71
2021/07/18 03:08:15;;;;;;;58.37;3.20;;;15.30;86.50;;;;;;5074358;28;20531;-71
2021/07/18 03:10:42;;;;;;;58.30;2.80;;;15.30;86.50;;;;;;5074521;28;20484;-71
2021/07/18 03:13:09;;;;;;;59.17;3.33;;;15.30;86.60;;;;;;5074256;28;20533;-71
2021/07/18 03:15:35;;;;;;;59.40;3.10;;;15.30;87.30;;;;;;5074220;28;20980;-71
2021/07/18 03:18:06;;;;;;;58.40;2.70;;;15.30;87.80;;;;;;5074356;28;20594;-71
2021/07/18 03:20:33;;;;;;;58.67;3.17;;;15.30;88.60;;;;;;5074243;28;20452;-71
2021/07/18 03:23:01;;;;;;;58.90;3.43;;;15.30;88.50;;;;;;5072196;28;20535;-71
2021/07/18 03:25:28;;;;;;;58.70;3.23;;;15.30;87.90;;;;;;5074169;28;20559;-71
2021/07/18 03:27:55;;;;;;;59.27;4.33;;;15.30;86.60;;;;;;5074249;28;20472;-71
2021/07/18 03:30:22;;;;;;;58.80;3.00;;;15.30;85.10;;;;;;5072805;28;20494;-71
2021/07/18 03:32:50;;;;;;;58.87;3.60;;;15.20;84.90;;;;;;5073673;28;20532;-71
2021/07/18 03:35:17;;;;;;;58.47;3.37;;;15.20;84.60;;;;;;5073764;28;20472;-72
2021/07/18 03:37:44;;;;;;;58.40;2.83;;;15.20;84.80;;;;;;5074246;28;20583;-71
2021/07/18 03:40:16;;;;;;;58.80;3.33;;;15.10;84.40;;;;;;5073812;28;20475;-71
2021/07/18 03:42:43;;;;;;;58.17;3.00;;;15.10;84.70;;;;;;5073466;28;21013;-71
2021/07/18 03:45:12;;;;;;;58.47;3.03;;;15.10;83.50;;;;;;5073726;28;20550;-71
2021/07/18 03:47:39;;;;;;;59.50;4.40;;;15.00;82.50;;;;;;5073654;28;20444;-71
2021/07/18 03:50:07;;;;;;;58.40;2.80;;;15.00;83.30;;;;;;5073537;28;20487;-71
2021/07/18 03:52:33;;;;;;;58.60;2.97;;;15.00;83.00;;;;;;5073471;28;20448;-71
2021/07/18 03:55:00;;;;;;;58.60;3.23;;;15.00;84.40;;;;;;5072413;28;20995;-71
2021/07/18 03:57:29;;;;;;;58.30;2.90;;;14.90;84.90;;;;;;5073358;28;20554;-71
2021/07/18 03:59:56;;;;;;;58.03;3.03;;;15.00;85.10;;;;;;5073487;28;20449;-71
2021/07/18 04:02:22;;;;;;;58.20;2.60;;;14.90;84.40;;;;;;5072888;28;20983;-71
2021/07/18 04:04:49;;;;;;;58.20;2.60;;;14.90;84.20;;;;;;5073326;28;20904;-72
2021/07/18 04:07:17;;;;;;;58.47;3.47;;;14.90;84.40;;;;;;5073131;28;20492;-71
2021/07/18 04:09:44;;;;;;;58.47;2.93;;;14.90;85.10;;;;;;5073509;28;20532;-71
2021/07/18 04:12:11;;;;;;;58.57;2.97;;;14.90;85.10;;;;;;5072908;28;20475;-71
2021/07/18 04:14:39;;;;;;;58.30;3.00;;;14.90;85.00;;;;;;5073126;28;20475;-71
2021/07/18 04:17:06;;;;;;;58.87;3.50;;;14.90;85.30;;;;;;5072822;28;20483;-71
2021/07/18 04:19:33;;;;;;;58.70;3.73;;;14.90;85.30;;;;;;5073012;28;20452;-71
2021/07/18 04:22:00;;;;;;;58.17;2.63;;;14.90;84.40;;;;;;5072957;28;20459;-72
2021/07/18 04:24:26;;;;;;;59.00;3.63;;;14.90;84.70;;;;;;5073086;28;20468;-71
2021/07/18 04:26:54;;;;;;;58.50;2.83;;;14.90;85.70;;;;;;5071585;28;20840;-71
2021/07/18 04:29:20;;;;;;;58.10;2.50;;;14.90;84.40;;;;;;5072727;28;20479;-71
2021/07/18 04:31:49;;;;;;;58.17;2.60;;;14.90;84.80;;;;;;5072396;28;20572;-71
2021/07/18 04:34:16;;;;;;;57.97;2.50;;;14.90;85.50;;;;;;5072641;28;20471;-71
2021/07/18 04:36:43;;;;;;;58.90;4.07;;;14.90;85.90;;;;;;5072804;28;20479;-71
2021/07/18 04:39:10;;;;;;;58.50;3.00;;;15.00;86.20;;;;;;5072862;28;20448;-72
2021/07/18 04:41:38;;;;;;;58.27;3.10;;;15.00;86.10;;;;;;5071997;28;20480;-71
2021/07/18 04:44:05;;;;;;;58.60;3.20;;;15.00;85.90;;;;;;5072393;28;20468;-71
2021/07/18 04:46:32;;;;;;;58.30;2.90;;;15.00;86.00;;;;;;5072675;28;20542;-71
2021/07/18 04:49:00;;;;;;;58.70;3.20;;;15.00;85.80;;;;;;5072432;28;20543;-71
2021/07/18 04:51:27;;;;;;;59.23;3.00;;;15.00;86.50;;;;;;5072343;28;20889;-71
2021/07/18 04:53:54;;;;;;;58.90;3.40;;;15.00;87.00;;;;;;5072414;28;20543;-71
2021/07/18 04:56:21;;;;;;;58.60;3.10;;;15.00;87.50;;;;;;5072382;28;20534;-72
2021/07/18 04:58:48;;;;;;;58.27;2.73;;;15.10;87.70;;;;;;5070693;28;20490;-71
2021/07/18 05:01:15;;;;;;;58.20;2.80;;;15.10;87.40;;;;;;5072081;28;20943;-71
2021/07/18 05:03:42;;;;;;;58.20;2.70;;;15.10;88.90;;;;;;5071928;28;20458;-71
2021/07/18 05:06:10;;;;;;;58.70;2.97;;;15.10;90.20;;;;;;5072100;28;20969;-71
2021/07/18 05:08:37;;;;;;;58.40;3.30;;;15.10;90.20;;;;;;5072595;28;20839;-71
2021/07/18 05:11:05;;;;;;;58.07;2.60;;;15.20;90.60;;;;;;5071954;28;20451;-71
2021/07/18 05:13:32;;;;;;;58.50;3.67;;;15.20;91.30;;;;;;5071680;28;20456;-71
2021/07/18 05:15:58;;;;;;;58.70;3.30;;;15.30;91.50;;;;;;5072163;28;21021;-71
2021/07/18 05:18:25;;;;;;;57.93;2.70;;;15.30;91.80;;;;;;5071897;28;20580;-71
2021/07/18 05:20:52;;;;;;;58.17;2.87;;;15.40;92.20;;;;;;5072110;28;20449;-71
2021/07/18 05:23:21;;;;;;;59.90;4.70;;;15.40;92.10;;;;;;5071802;28;20827;-71
2021/07/18 05:25:47;;;;;;;57.97;2.60;;;15.40;92.30;;;;;;5071704;28;20838;-71
2021/07/18 05:28:14;;;;;;;58.40;2.80;;;15.50;92.10;;;;;;5071848;28;20444;-71
2021/07/18 05:30:41;;;;;;;58.60;2.80;;;15.50;92.30;;;;;;5070899;28;20455;-72
2021/07/18 05:33:08;;;;;;;58.07;2.83;;;15.50;92.00;;;;;;5071623;28;20539;-71
2021/07/18 05:35:35;;;;;;;58.57;2.80;;;15.60;91.90;;;;;;5071757;28;20468;-71
2021/07/18 05:38:02;;;;;;;58.10;2.93;;;15.60;91.80;;;;;;5071705;28;20506;-71
2021/07/18 05:40:30;;;;;;;58.07;2.67;;;15.60;91.40;;;;;;5071586;28;20452;-71
2021/07/18 05:42:57;;;;;;;58.30;3.00;;;15.60;90.80;;;;;;5071768;28;20817;-71
2021/07/18 05:45:24;;;;;;;57.87;2.43;;;15.60;90.50;;;;;;5071576;28;20483;-71
2021/07/18 05:47:51;;;;;;;59.20;3.10;;;15.60;89.90;;;;;;5071781;28;20452;-71
2021/07/18 05:50:18;;;;;;;59.80;4.30;;;15.70;88.90;;;;;;5071874;28;20823;-70
2021/07/18 05:52:45;;;;;;;57.87;2.60;;;15.70;86.80;;;;;;5071377;28;20548;-71
2021/07/18 05:55:13;;;;;;;58.60;3.27;;;15.70;85.30;;;;;;5075409;28;20550;-71
2021/07/18 05:57:41;;;;;;;58.03;2.50;;;15.70;84.70;;;;;;5075790;28;20505;-71
2021/07/18 06:00:10;;;;;;;58.17;2.80;;;15.80;84.30;;;;;;5075808;28;20449;-71
2021/07/18 06:02:37;;;;;;;58.10;2.60;;;15.80;82.90;;;;;;5073884;28;20571;-71
2021/07/18 06:05:05;;;;;;;57.87;2.97;;;15.90;81.00;;;;;;5075452;28;20472;-71
2021/07/18 06:07:32;;;;;;;58.17;2.57;;;15.90;78.70;;;;;;5075322;28;20545;-71
2021/07/18 06:10:00;;;;;;;58.07;2.90;;;15.90;75.70;;;;;;5075611;28;20541;-71
2021/07/18 06:12:27;;;;;;;58.30;2.40;;;15.90;74.20;;;;;;5075493;28;20491;-71
2021/07/18 06:14:57;;;;;;;58.63;3.10;;;16.00;70.80;;;;;;5075404;28;20558;-71
2021/07/18 06:17:23;;;;;;;58.37;2.77;;;16.00;67.20;;;;;;5075314;28;20507;-71
2021/07/18 06:19:50;;;;;;;58.30;2.80;;;16.00;62.20;;;;;;5075264;28;20912;-71
2021/07/18 06:22:17;;;;;;;62.73;6.10;;;16.10;53.40;;;;;;5074908;28;20455;-71
2021/07/18 06:24:44;;;;;;;58.67;3.17;;;16.10;46.30;;;;;;5075258;28;20466;-71
2021/07/18 06:27:11;;;;;;;58.30;2.80;;;16.20;40.20;;;;;;5075253;28;20539;-71
2021/07/18 06:29:38;;;;;;;60.40;3.20;;;16.20;27.70;;;;;;5075149;28;20528;-71
2021/07/18 06:32:08;;;;;;;58.60;3.10;;;16.30;21.20;;;;;;5074921;28;20445;-71
2021/07/18 06:34:34;;;;;;;58.17;2.93;;;16.30;14.90;;;;;;5073367;28;20465;-71
2021/07/18 06:37:01;;;;;;;58.20;2.60;;;16.40;1.60;;;;;;5074882;28;20540;-72
2021/07/18 06:39:28;;;;;;;58.20;2.30;;;16.50;1.00;;;;;;5074931;28;20589;-71
2021/07/18 06:41:55;;;;;;;58.40;2.90;;;16.50;1.00;;;;;;5074655;28;20535;-71
2021/07/18 06:44:22;;;;;;;57.67;2.30;;;16.60;1.00;;;;;;5074833;28;20485;-71
2021/07/18 06:46:49;;;;;;;58.13;2.33;;;16.70;1.00;;;;;;5074815;28;20540;-71
2021/07/18 06:49:17;;;;;;;57.97;2.30;;;16.70;1.00;;;;;;5074608;28;20543;-71
2021/07/18 06:51:44;;;;;;;58.67;2.77;;;16.80;1.00;;;;;;5074527;28;20500;-72
2021/07/18 06:54:10;;;;;;;57.97;2.60;;;16.90;1.00;;;;;;5074722;28;20901;-71
2021/07/18 06:56:37;;;;;;;58.00;2.40;;;16.90;1.00;;;;;;5074455;28;20532;-71
2021/07/18 06:59:04;;;;;;;57.67;2.60;;;17.00;1.00;;;;;;5074441;28;20482;-71
2021/07/18 07:01:31;;;;;;;57.87;2.47;;;17.10;1.00;;;;;;5074137;28;20532;-71
2021/07/18 07:03:58;;;;;;;58.00;2.40;;;17.20;1.00;;;;;;5074197;28;20569;-72
2021/07/18 07:06:26;;;;;;;58.70;3.50;;;17.20;1.00;;;;;;5072927;28;20536;-71
2021/07/18 07:08:53;;;;;;;58.30;2.80;;;17.30;1.00;;;;;;5058635;28;20547;-71
2021/07/18 07:11:20;;;;;;;58.50;2.70;;;17.30;1.00;;;;;;5054242;28;20457;-71
2021/07/18 07:13:47;;;;;;;58.17;2.60;;;17.40;1.00;;;;;;5054062;28;20554;-71
2021/07/18 07:16:14;;;;;;;57.83;2.43;;;17.50;1.00;;;;;;5054044;28;20462;-71
2021/07/18 07:18:41;;;;;;;58.13;2.50;;;17.50;1.00;;;;;;5054278;28;20487;-71
2021/07/18 07:21:09;;;;;;;57.93;2.90;;;17.60;1.00;;;;;;5054200;28;20461;-71
2021/07/18 07:23:37;;;;;;;57.90;2.30;;;17.60;1.00;;;;;;5054020;28;20892;-71
2021/07/18 07:26:06;;;;;;;57.70;2.60;;;17.70;1.00;;;;;;5053848;28;20458;-71
2021/07/18 07:28:33;;;;;;;57.80;2.40;;;17.80;1.00;;;;;;5053937;28;21015;-71
2021/07/18 07:31:00;;;;;;;58.43;2.63;;;17.90;1.00;;;;;;5054206;28;20550;-71
2021/07/18 07:33:29;;;;;;;58.30;2.70;;;18.00;1.00;;;;;;5053866;28;20486;-71
2021/07/18 07:35:56;;;;;;;57.57;2.53;;;18.00;1.00;;;;;;5053759;28;20922;-71
2021/07/18 07:38:23;;;;;;;57.83;2.33;;;18.20;1.00;;;;;;5072635;28;21062;-72
2021/07/18 07:40:51;;;;;;;58.00;2.70;;;18.20;1.00;;;;;;5073762;28;20461;-71
2021/07/18 07:43:18;;;;;;;57.67;2.50;;;18.30;1.00;;;;;;5073291;28;20530;-71
2021/07/18 07:45:45;;;;;;;57.97;2.40;;;18.40;1.00;;;;;;5073796;28;20561;-72
2021/07/18 07:48:12;;;;;;;57.57;2.50;;;18.50;1.00;;;;;;5073741;28;20530;-71
2021/07/18 07:50:39;;;;;;;58.40;2.77;;;18.60;1.00;;;;;;5073736;28;20449;-72
2021/07/18 07:53:06;;;;;;;57.73;2.53;;;18.70;1.00;;;;;;5073266;28;20500;-71
2021/07/18 07:55:34;;;;;;;57.77;2.40;;;18.80;1.00;;;;;;5073348;28;20463;-72
2021/07/18 07:58:03;;;;;;;57.97;2.30;;;18.90;1.00;;;;;;5073262;28;20577;-72
2021/07/18 08:00:30;;;;;;;57.97;2.57;;;18.90;1.00;;;;;;5073571;28;20458;-72
2021/07/18 08:02:57;;;;;;;58.20;2.43;;;19.00;1.00;;;;;;5073041;28;20550;-72
2021/07/18 08:05:24;;;;;;;58.07;2.40;;;19.10;1.00;;;;;;5073310;28;20554;-72
2021/07/18 08:07:51;;;;;;;57.40;2.20;;;19.20;1.00;;;;;;5071982;28;20453;-71
2021/07/18 08:10:20;;;;;;;57.87;2.40;;;19.30;1.00;;;;;;5072940;28;20457;-72
2021/07/18 08:12:48;;;;;;;58.20;2.50;;;19.40;1.00;;;;;;5072927;28;20447;-72
2021/07/18 08:15:19;;;;;;;58.27;2.70;;;19.50;1.00;;;;;;5073195;28;20550;-71
2021/07/18 08:17:46;;;;;;;57.67;2.33;;;19.60;1.00;;;;;;5072507;28;20451;-71
2021/07/18 08:20:15;;;;;;;58.20;2.50;;;19.70;1.00;;;;;;5073153;28;20534;-71
2021/07/18 08:22:42;;;;;;;57.77;2.50;;;19.80;1.00;;;;;;5072706;28;20538;-72
2021/07/18 08:25:10;;;;;;;57.97;2.50;;;19.90;1.00;;;;;;5072671;28;20472;-72
2021/07/18 08:27:36;;;;;;;58.30;2.30;;;20.00;1.00;;;;;;5072873;28;21031;-72
2021/07/18 08:30:05;;;;;;;57.43;2.10;;;20.10;1.00;;;;;;5073110;28;20443;-71
2021/07/18 08:32:34;;;;;;;57.70;2.30;;;20.20;1.00;;;;;;5072991;28;20531;-72
2021/07/18 08:35:01;;;;;;;57.53;2.23;;;20.30;1.00;;;;;;5072725;28;20558;-72
2021/07/18 08:37:28;;;;;;;57.73;2.00;;;20.40;1.00;;;;;;5072477;28;20451;-71
2021/07/18 08:39:55;;;;;;;57.77;2.60;;;20.50;1.00;;;;;;5071263;28;20562;-72
2021/07/18 08:42:22;;;;;;;57.77;2.43;;;20.60;1.00;;;;;;5072170;28;21026;-72
2021/07/18 08:44:49;;;;;;;58.27;2.63;;;20.70;1.00;;;;;;5072455;28;21060;-72
2021/07/18 08:47:17;;;;;;;57.90;2.57;;;20.80;1.00;;;;;;5072553;28;20824;-71
2021/07/18 08:49:46;;;;;;;57.57;2.30;;;20.90;1.00;;;;;;5072509;28;20522;-72
2021/07/18 08:52:13;;;;;;;58.37;2.40;;;21.00;1.00;;;;;;5072081;28;20464;-72
2021/07/18 08:54:40;;;;;;;57.80;2.30;;;21.20;1.00;;;;;;5072440;28;20473;-72
2021/07/18 08:57:07;;;;;;;57.67;2.40;;;21.20;1.00;;;;;;5072377;28;20992;-71
2021/07/18 08:59:35;;;;;;;57.77;2.20;;;21.30;1.00;;;;;;5072296;28;20578;-71
2021/07/18 09:02:02;;;;;;;57.53;2.30;;;21.40;1.00;;;;;;5072018;28;20443;-72
2021/07/18 09:04:29;;;;;;;57.87;2.10;;;21.60;1.00;;;;;;5072049;28;20507;-72
2021/07/18 09:07:04;;;;;;;57.57;2.20;;;21.70;1.00;;;;;;5072392;28;20451;-72
2021/07/18 09:09:32;;;;;;;57.47;2.13;;;21.90;1.00;;;;;;5067059;28;20940;-71
2021/07/18 09:12:00;;;;;;;57.77;2.50;;;22.00;1.00;;;;;;5058524;28;20444;-72
2021/07/18 09:14:31;;;;;;;58.07;2.30;;;22.10;1.00;;;;;;5072030;28;20550;-72
2021/07/18 09:16:59;;;;;;;59.07;3.03;;;22.30;1.00;;;;;;5071997;28;20454;-72
2021/07/18 09:19:29;;;;;;;59.33;3.70;;;22.40;1.00;;;;;;5072120;28;20487;-72
2021/07/18 09:22:12;;;;;;;58.07;2.57;;;22.40;1.00;;;;;;5071939;28;20454;-72
2021/07/18 09:24:41;;;;;;;57.97;2.37;;;22.50;1.00;;;;;;5072328;28;20481;-72
2021/07/18 09:27:11;;;;;;;58.17;2.70;;;22.60;1.00;;;;;;5071995;28;20830;-71
2021/07/18 09:29:41;;;;;;;58.90;2.80;;;22.60;1.00;;;;;;5072272;28;20535;-72
2021/07/18 09:32:09;;;;;;;57.87;2.17;;;22.80;1.00;;;;;;5070434;28;20498;-72
2021/07/18 09:34:38;;;;;;;58.27;2.63;;;22.90;1.00;;;;;;5070857;28;20979;-72
2021/07/18 09:37:12;;;;;;;58.00;2.30;;;23.10;1.00;;;;;;5071897;28;20451;-72
2021/07/18 09:39:40;;;;;;;60.00;2.50;;;23.20;1.00;;;;;;5071765;28;20475;-73
2021/07/18 09:42:07;;;;;;;57.47;2.03;;;23.30;1.00;;;;;;5071473;28;20447;-74
2021/07/18 09:44:41;;;;;;;57.77;2.30;;;23.40;1.00;;;;;;5071912;28;20484;-72
2021/07/18 09:47:09;;;;;;;58.43;2.57;;;23.50;1.00;;;;;;5071847;28;20443;-73
2021/07/18 09:49:38;;;;;;;58.17;3.40;;;23.60;1.00;;;;;;5071752;28;20454;-73
2021/07/18 09:52:19;;;;;;;57.67;2.17;;;23.80;1.00;;;;;;5071368;28;20538;-71
2021/07/18 09:54:47;;;;;;;57.80;2.10;;;23.90;1.00;;;;;;5071670;28;20836;-71
2021/07/18 09:57:29;;;;;;;57.73;2.20;;;24.00;1.00;;;;;;5071870;28;20482;-71
2021/07/18 09:59:56;;;;;;;57.80;2.07;;;24.10;1.00;;;;;;5071596;28;20553;-73
2021/07/18 10:02:25;;;;;;;57.87;2.20;;;24.30;1.00;;;;;;5071351;28;20476;-71
2021/07/18 10:04:52;;;;;;;57.70;2.30;;;24.50;1.00;;;;;;5071437;28;20469;-71
2021/07/18 10:07:22;;;;;;;57.67;2.30;;;24.60;1.00;;;;;;5071399;28;20860;-72
2021/07/18 10:09:50;;;;;;;57.77;2.17;;;24.80;1.00;;;;;;5071895;28;20450;-71
2021/07/18 10:12:17;;;;;;;58.00;2.73;;;25.10;1.00;;;;;;5071147;28;20450;-72
2021/07/18 10:14:44;;;;;;;57.83;2.60;;;25.30;1.00;;;;;;5071450;28;20478;-71
2021/07/18 10:17:12;;;;;;;57.77;2.30;;;25.60;1.00;;;;;;5071173;28;20538;-71
2021/07/18 10:19:39;;;;;;;57.77;2.20;;;25.90;1.00;;;;;;5071331;28;20480;-72
2021/07/18 10:22:08;;;;;;;57.77;2.20;;;26.20;1.00;;;;;;5071231;28;20530;-72
2021/07/18 10:24:36;;;;;;;58.50;2.23;;;26.50;1.00;;;;;;5071506;28;20906;-71
2021/07/18 10:27:05;;;;;;;57.70;2.10;;;27.00;1.00;;;;;;5071255;28;20545;-72
2021/07/18 10:29:32;;;;;;;57.77;2.47;;;28.10;1.00;;;;;;5071315;28;20443;-72
2021/07/18 10:32:04;;;;;;;57.70;2.30;;;29.50;1.00;;;;;;5070919;28;20477;-71
2021/07/18 10:34:35;;;;;;;59.30;2.90;;;30.80;1.00;;;;;;5071454;28;20468;-72
2021/07/18 10:37:03;;;;;;;57.40;2.13;;;31.00;1.00;;;;;;5071616;28;20457;-73
2021/07/18 10:39:32;;;;;;;57.37;2.10;;;31.50;1.00;;;;;;5052600;28;20498;-73
2021/07/18 10:42:02;;;;;;;57.37;2.10;;;31.70;1.00;;;;;;5074568;28;20451;-73
2021/07/18 10:44:39;;;;;;;58.50;2.30;;;32.20;1.00;;;;;;5074755;28;20488;-73
2021/07/18 10:47:06;;;;;;;57.37;2.30;;;33.20;1.00;;;;;;5074827;28;20504;-73
2021/07/18 10:49:54;;;;;;;57.43;2.10;;;33.90;1.00;;;;;;5074950;28;20439;-73
2021/07/18 10:52:23;;;;;;;57.37;2.30;;;34.70;1.00;;;;;;5074516;28;20882;-73
2021/07/18 10:54:51;;;;;;;57.40;2.00;;;35.40;1.00;;;;;;5074730;28;20478;-73
2021/07/18 10:57:23;;;;;;;57.70;2.37;;;35.90;1.00;;;;;;5075086;28;20457;-73
2021/07/18 10:59:51;;;;;;;57.50;2.10;;;36.20;1.00;;;;;;5074633;28;20914;-73
2021/07/18 11:02:20;;;;;;;57.17;1.90;;;36.50;1.00;;;;;;5074494;28;20451;-73
2021/07/18 11:04:48;;;;;;;57.13;2.20;;;37.00;1.00;;;;;;5074989;28;20459;-73
2021/07/18 11:07:33;;;;;;;57.37;2.20;;;37.30;1.00;;;;;;5074534;28;20443;-73
2021/07/18 11:10:13;;;;;;;57.30;2.27;;;37.30;1.00;;;;;;5073366;28;20542;-73
2021/07/18 11:12:44;;;;;;;57.00;2.17;;;37.60;1.00;;;;;;5062526;28;20452;-73
2021/07/18 11:15:36;;;;;;;57.07;2.07;;;37.80;1.00;;;;;;5054513;28;20906;-73
2021/07/18 11:18:09;;;;;;;57.37;2.30;;;37.70;1.00;;;;;;5054142;28;20534;-73
2021/07/18 11:21:03;;;;;;;57.87;2.50;;;36.90;1.00;;;;;;5054221;28;20579;-73
2021/07/18 11:23:37;;;;;;;57.40;2.30;;;37.10;1.00;;;;;;5054146;28;20539;-73
2021/07/18 11:26:11;;;;;;;57.17;2.23;;;37.40;1.00;;;;;;5054055;28;20877;-73
2021/07/18 11:29:09;;;;;;;57.37;2.47;;;37.30;1.00;;;;;;5054170;28;20955;-73
2021/07/18 11:31:44;;;;;;;57.27;2.10;;;37.10;1.00;;;;;;5053835;28;20445;-73
2021/07/18 11:34:16;;;;;;;57.13;2.17;;;37.40;1.00;;;;;;5053755;28;21037;-73
2021/07/18 11:37:02;;;;;;;57.00;2.50;;;38.00;1.00;;;;;;5053774;28;20455;-73
2021/07/18 11:39:30;;;;;;;56.87;2.53;;;38.60;1.00;;;;;;5053868;28;20484;-74
2021/07/18 11:41:58;;;;;;;58.00;3.00;;;39.00;1.00;;;;;;5064578;28;20824;-74
2021/07/18 11:44:30;;;;;;;56.80;1.90;;;39.30;1.00;;;;;;5073566;28;20550;-73
2021/07/18 11:47:01;;;;;;;58.50;2.50;;;39.40;1.00;;;;;;5073689;28;20454;-72
2021/07/18 11:49:30;;;;;;;57.10;2.07;;;39.70;1.00;;;;;;5073852;28;20441;-73
2021/07/18 11:51:57;;;;;;;57.30;2.13;;;39.90;1.00;;;;;;5072365;28;20838;-73
2021/07/18 11:54:25;;;;;;;57.17;2.40;;;40.40;1.00;;;;;;5073412;28;20550;-74
2021/07/18 11:56:53;;;;;;;57.30;2.20;;;40.70;1.00;;;;;;5073704;28;20454;-74
2021/07/18 11:59:22;;;;;;;56.60;2.13;;;40.80;1.00;;;;;;5073988;28;21007;-73
2021/07/18 12:01:52;;;;;;;56.77;2.50;;;40.90;1.00;;;;;;5073068;28;20457;-73
2021/07/18 12:04:22;;;;;;;57.13;2.73;;;41.20;1.00;;;;;;5073105;28;21044;-73
2021/07/18 12:06:54;;;;;;;57.40;2.53;;;41.40;1.00;;;;;;5073410;28;20455;-73
2021/07/18 12:09:23;;;;;;;57.07;2.17;;;41.50;1.00;;;;;;5073242;28;20448;-73
2021/07/18 12:11:52;;;;;;;57.00;2.20;;;41.30;1.00;;;;;;5069320;28;20455;-73
2021/07/18 12:14:20;;;;;;;56.90;2.40;;;41.20;1.00;;;;;;5052780;28;20995;-73
2021/07/18 12:16:47;;;;;;;57.63;2.60;;;41.30;1.00;;;;;;5053316;28;20543;-74
2021/07/18 12:19:17;;;;;;;56.77;2.30;;;41.50;1.00;;;;;;5053065;28;20511;-74
2021/07/18 12:21:45;;;;;;;56.90;2.03;;;41.70;1.00;;;;;;5052658;28;20499;-74
2021/07/18 12:24:17;;;;;;;57.17;2.30;;;41.30;1.00;;;;;;5052984;28;20560;-73
2021/07/18 12:26:46;;;;;;;56.70;2.13;;;40.80;1.00;;;;;;5052755;28;20913;-74
2021/07/18 12:29:14;;;;;;;57.10;2.57;;;41.00;1.00;;;;;;5052998;28;20491;-74
2021/07/18 12:31:43;;;;;;;57.27;2.70;;;41.20;1.00;;;;;;5052426;28;20476;-74
2021/07/18 12:34:11;;;;;;;56.93;2.13;;;41.40;1.00;;;;;;5052886;28;20476;-74
2021/07/18 12:36:57;;;;;;;56.97;2.10;;;41.80;1.00;;;;;;5052694;28;20495;-73
2021/07/18 12:39:27;;;;;;;56.20;1.97;;;42.20;1.00;;;;;;5052497;28;20914;-74
2021/07/18 12:41:55;;;;;;;57.67;3.30;;;42.30;1.00;;;;;;5052516;28;20452;-73
2021/07/18 12:44:23;;;;;;;57.00;2.20;;;42.10;1.00;;;;;;5064469;28;20995;-74
2021/07/18 12:47:10;;;;;;;56.97;2.67;;;41.60;1.00;;;;;;5072403;28;20479;-73